Time;durP1;ratioP1;P1;durP2;ratioP2;P2;SDS_P1;SDS_P2;PMS_P1;PMS_P2;Temp;Humidity;BMP_temperature;BMP_pressure;BME280_temperature;BME280_humidity;BME280_pressure;Samples;Min_cycle;Max_cycle;Signal;HPM_P1;HPM_P2
2023/11/20 00:02:09;0.00;0.00;0.62;0.00;0.00;0.62;4.17;2.70;;;22.00;29.50;;;;;;2256118;61;20721;-57
2023/11/20 00:04:55;0.00;0.00;0.62;0.00;0.00;0.62;4.40;2.90;;;22.00;29.00;;;;;;2256315;61;20414;-61
2023/11/20 00:07:40;0.00;0.00;0.62;0.00;0.00;0.62;4.30;2.60;;;22.00;29.00;;;;;;2252792;61;20913;-60
2023/11/20 00:10:25;0.00;0.00;0.62;0.00;0.00;0.62;3.47;2.53;;;22.00;29.00;;;;;;2256242;61;20390;-58
2023/11/20 00:13:10;0.00;0.00;0.62;0.00;0.00;0.62;3.73;2.37;;;22.00;29.00;;;;;;2256036;61;20382;-56
2023/11/20 00:15:55;0.00;0.00;0.62;0.00;0.00;0.62;3.40;2.57;;;22.00;29.00;;;;;;2256259;61;20441;-58
2023/11/20 00:18:40;0.00;0.00;0.62;0.00;0.00;0.62;4.07;2.60;;;22.00;29.00;;;;;;2256357;61;20457;-59
2023/11/20 00:21:25;0.00;0.00;0.62;0.00;0.00;0.62;3.00;2.30;;;21.90;29.00;;;;;;2255885;61;20389;-57
2023/11/20 00:24:10;0.00;0.00;0.62;0.00;0.00;0.62;4.20;2.43;;;21.90;29.00;;;;;;2256376;61;20825;-58
2023/11/20 00:26:55;0.00;0.00;0.62;0.00;0.00;0.62;3.70;2.40;;;21.90;29.00;;;;;;2256388;61;20397;-60
2023/11/20 00:29:40;0.00;0.00;0.62;0.00;0.00;0.62;3.10;2.47;;;22.00;29.00;;;;;;2252913;61;20931;-55
2023/11/20 00:32:25;0.00;0.00;0.62;0.00;0.00;0.62;4.43;3.07;;;22.00;29.00;;;;;;2255742;61;20365;-55
2023/11/20 00:35:10;0.00;0.00;0.62;0.00;0.00;0.62;2.83;2.20;;;22.00;29.00;;;;;;2253173;61;20944;-60
2023/11/20 00:37:57;0.00;0.00;0.62;0.00;0.00;0.62;3.53;1.90;;;21.90;29.00;;;;;;2255961;61;20476;-56
2023/11/20 00:40:41;0.00;0.00;0.62;0.00;0.00;0.62;3.70;2.77;;;21.90;29.00;;;;;;2256226;61;20801;-57
2023/11/20 00:43:26;0.00;0.00;0.62;0.00;0.00;0.62;2.87;2.40;;;21.90;29.00;;;;;;2255417;61;20446;-51
2023/11/20 00:46:11;0.00;0.00;0.62;0.00;0.00;0.62;2.57;1.73;;;21.90;29.00;;;;;;2256713;61;20387;-60
2023/11/20 00:48:55;0.00;0.00;0.62;0.00;0.00;0.62;3.33;2.07;;;21.90;29.00;;;;;;2256884;61;20358;-57
2023/11/20 00:51:40;0.00;0.00;0.62;0.00;0.00;0.62;3.40;2.10;;;21.90;29.50;;;;;;2256295;61;20382;-58
2023/11/20 00:54:26;0.00;0.00;0.62;0.00;0.00;0.62;3.03;2.10;;;21.90;29.00;;;;;;2256889;61;20903;-58
2023/11/20 00:57:10;0.00;0.00;0.62;0.00;0.00;0.62;2.63;1.63;;;22.00;29.10;;;;;;2256789;61;20493;-56
2023/11/20 00:59:55;0.00;0.00;0.62;0.00;0.00;0.62;4.03;2.07;;;21.90;29.00;;;;;;2253525;61;20377;-56
2023/11/20 01:02:41;0.00;0.00;0.62;0.00;0.00;0.62;3.23;1.70;;;21.90;29.00;;;;;;2256769;61;20366;-55
2023/11/20 01:05:26;0.00;0.00;0.62;0.00;0.00;0.62;2.77;1.90;;;22.00;29.10;;;;;;2253310;61;20428;-57
2023/11/20 01:08:10;0.00;0.00;0.62;0.00;0.00;0.62;3.20;2.10;;;21.90;29.00;;;;;;2256895;61;20412;-56
2023/11/20 01:10:56;0.00;0.00;0.62;0.00;0.00;0.62;2.93;1.63;;;22.00;29.10;;;;;;2256915;61;20389;-56
2023/11/20 01:13:41;0.00;0.00;0.62;0.00;0.00;0.62;2.63;1.57;;;22.00;29.10;;;;;;2253109;61;20373;-58
2023/11/20 01:16:26;0.00;0.00;0.62;0.00;0.00;0.62;2.50;1.60;;;21.90;29.00;;;;;;2253639;61;20393;-56
2023/11/20 01:19:12;0.00;0.00;0.62;0.00;0.00;0.62;2.83;1.80;;;21.90;29.00;;;;;;2253651;61;20389;-56
2023/11/20 01:21:57;0.00;0.00;0.62;0.00;0.00;0.62;2.77;1.93;;;21.90;29.10;;;;;;2256056;61;20365;-56
2023/11/20 01:24:41;0.00;0.00;0.62;0.00;0.00;0.62;2.20;1.30;;;21.90;29.10;;;;;;2257084;61;20853;-58
2023/11/20 01:27:27;0.00;0.00;0.62;0.00;0.00;0.62;3.17;1.87;;;21.90;29.10;;;;;;2256726;61;20769;-55
2023/11/20 01:30:13;0.00;0.00;0.62;0.00;0.00;0.62;2.73;1.67;;;22.00;29.10;;;;;;2256852;61;20398;-60
2023/11/20 01:32:57;0.00;0.00;0.62;0.00;0.00;0.62;2.17;1.60;;;21.90;29.10;;;;;;2256416;61;20974;-58
2023/11/20 01:35:42;0.00;0.00;0.62;0.00;0.00;0.62;2.23;1.47;;;22.00;29.10;;;;;;2253335;61;20381;-58
2023/11/20 01:38:27;0.00;0.00;0.62;0.00;0.00;0.62;2.60;1.30;;;22.00;29.10;;;;;;2256719;61;20362;-55
2023/11/20 01:41:12;0.00;0.00;0.62;0.00;0.00;0.62;2.63;1.53;;;22.00;29.10;;;;;;2253655;61;20388;-58
2023/11/20 01:43:59;0.00;0.00;0.62;0.00;0.00;0.62;3.00;1.57;;;21.90;29.10;;;;;;2253233;61;20430;-53
2023/11/20 01:46:43;0.00;0.00;0.62;0.00;0.00;0.62;2.20;1.40;;;22.00;29.10;;;;;;2256775;61;20358;-59
2023/11/20 01:49:30;0.00;0.00;0.62;0.00;0.00;0.62;2.50;1.63;;;21.90;29.10;;;;;;2253201;61;20903;-58
2023/11/20 01:52:14;0.00;0.00;0.62;0.00;0.00;0.62;2.07;1.20;;;22.00;29.20;;;;;;2256389;61;20366;-56
2023/11/20 01:54:59;0.00;0.00;0.62;0.00;0.00;0.62;2.30;1.20;;;22.00;29.20;;;;;;2256700;61;20370;-61
2023/11/20 01:57:46;0.00;0.00;0.62;0.00;0.00;0.62;2.10;1.40;;;22.00;29.20;;;;;;2256258;61;20436;-60
2023/11/20 02:00:33;0.00;0.00;0.62;0.00;0.00;0.62;2.63;1.43;;;21.90;29.10;;;;;;2253553;61;20398;-57
2023/11/20 02:03:19;0.00;0.00;0.62;0.00;0.00;0.62;1.70;1.07;;;22.00;29.20;;;;;;2256620;61;20370;-58
2023/11/20 02:06:05;0.00;0.00;0.62;0.00;0.00;0.62;2.93;1.63;;;21.90;29.10;;;;;;2256468;61;20429;-53
2023/11/20 02:08:49;0.00;0.00;0.62;0.00;0.00;0.62;2.23;1.50;;;21.90;29.10;;;;;;2253502;61;20401;-54
2023/11/20 02:11:34;0.00;0.00;0.62;0.00;0.00;0.62;3.37;1.80;;;22.00;29.20;;;;;;2256411;61;20444;-57
2023/11/20 02:14:19;0.00;0.00;0.62;0.00;0.00;0.62;2.93;1.50;;;21.90;29.10;;;;;;2256478;61;20458;-61
2023/11/20 02:17:05;0.00;0.00;0.62;0.00;0.00;0.62;2.00;1.30;;;22.00;29.20;;;;;;2253001;61;20397;-56
2023/11/20 02:19:50;0.00;0.00;0.62;0.00;0.00;0.62;2.67;1.47;;;22.00;29.20;;;;;;2249118;61;20405;-59
2023/11/20 02:22:35;0.00;0.00;0.62;0.00;0.00;0.62;1.90;1.20;;;21.90;29.10;;;;;;2251117;58;20934;-55
2023/11/20 02:25:19;0.00;0.00;0.62;0.00;0.00;0.62;1.93;1.13;;;22.00;29.20;;;;;;2256705;61;20915;-56
2023/11/20 02:28:15;0.00;0.00;0.62;0.00;0.00;0.62;1.90;1.00;;;21.90;29.10;;;;;;2256346;61;20409;-59
2023/11/20 02:31:01;0.00;0.00;0.62;0.00;0.00;0.62;2.00;1.10;;;22.00;29.20;;;;;;2256668;61;20533;-54
2023/11/20 02:33:46;0.00;0.00;0.62;0.00;0.00;0.62;1.93;1.00;;;21.90;29.10;;;;;;2253242;61;20365;-60
2023/11/20 02:36:31;0.00;0.00;0.62;0.00;0.00;0.62;1.73;1.17;;;22.00;29.20;;;;;;2255773;61;20431;-58
2023/11/20 02:39:15;0.00;0.00;0.62;0.00;0.00;0.62;2.23;1.10;;;21.90;29.40;;;;;;2256680;61;20794;-57
2023/11/20 02:42:00;0.00;0.00;0.62;0.00;0.00;0.62;1.87;1.03;;;21.90;29.10;;;;;;2255779;61;20361;-54
2023/11/20 02:44:45;0.00;0.00;0.62;0.00;0.00;0.62;1.63;0.97;;;21.90;29.20;;;;;;2256432;61;20429;-60
2023/11/20 02:47:32;0.00;0.00;0.62;0.00;0.00;0.62;1.70;1.07;;;22.00;29.20;;;;;;2256744;61;20405;-60
2023/11/20 02:50:17;0.00;0.00;0.62;0.00;0.00;0.62;2.07;1.20;;;22.00;29.20;;;;;;2255851;61;20425;-59
2023/11/20 02:53:01;0.00;0.00;0.62;0.00;0.00;0.62;2.00;1.17;;;22.00;29.20;;;;;;2256403;61;20428;-57
2023/11/20 02:55:46;0.00;0.00;0.62;0.00;0.00;0.62;2.10;1.40;;;21.90;29.20;;;;;;2256470;61;20780;-59
2023/11/20 02:58:30;0.00;0.00;0.62;0.00;0.00;0.62;3.00;1.27;;;21.90;29.20;;;;;;2256437;61;20366;-59
2023/11/20 03:01:15;0.00;0.00;0.62;0.00;0.00;0.62;2.00;1.10;;;21.90;29.20;;;;;;2256442;61;20381;-55
2023/11/20 03:04:01;0.00;0.00;0.62;0.00;0.00;0.62;2.07;1.30;;;22.00;29.20;;;;;;2256127;61;20409;-55
2023/11/20 03:06:45;0.00;0.00;0.62;0.00;0.00;0.62;2.63;1.23;;;21.90;29.20;;;;;;2253470;61;20362;-53
2023/11/20 03:09:30;0.00;0.00;0.62;0.00;0.00;0.62;1.77;1.17;;;21.90;29.20;;;;;;2256741;61;20409;-57
2023/11/20 03:12:15;0.00;0.00;0.62;0.00;0.00;0.62;2.10;1.20;;;21.90;29.20;;;;;;2255882;61;20416;-59
2023/11/20 03:15:02;0.00;0.00;0.62;0.00;0.00;0.62;2.00;1.20;;;21.90;29.20;;;;;;2256689;61;20369;-55
2023/11/20 03:17:47;0.00;0.00;0.62;0.00;0.00;0.62;1.80;1.20;;;22.00;29.20;;;;;;2256385;61;20796;-54
2023/11/20 03:20:33;0.00;0.00;0.62;0.00;0.00;0.62;1.87;1.20;;;21.90;29.20;;;;;;2256321;61;20385;-57
2023/11/20 03:23:19;0.00;0.00;0.62;0.00;0.00;0.62;1.97;1.07;;;21.90;29.20;;;;;;2256157;61;20393;-57
2023/11/20 03:26:04;0.00;0.00;0.62;0.00;0.00;0.62;2.13;1.30;;;21.90;29.20;;;;;;2256380;61;20667;-57
2023/11/20 03:28:51;0.00;0.00;0.62;0.00;0.00;0.62;1.80;1.17;;;21.90;29.20;;;;;;2716147;45;20362;-57
2023/11/20 03:31:37;0.00;0.00;0.62;0.00;0.00;0.62;1.60;0.80;;;21.90;29.20;;;;;;2256036;61;20386;-59
2023/11/20 03:34:22;0.00;0.00;0.62;0.00;0.00;0.62;1.50;0.90;;;22.00;29.30;;;;;;2256045;61;20569;-58
2023/11/20 03:37:07;0.00;0.00;0.62;0.00;0.00;0.62;1.97;1.00;;;21.90;29.20;;;;;;2256250;61;20398;-56
2023/11/20 03:39:52;0.00;0.00;0.62;0.00;0.00;0.62;1.80;1.10;;;22.00;29.30;;;;;;2256391;61;20542;-57
2023/11/20 03:42:36;0.00;0.00;0.62;0.00;0.00;0.62;2.00;1.30;;;21.90;29.20;;;;;;2252451;61;20361;-58
2023/11/20 03:45:21;0.00;0.00;0.62;0.00;0.00;0.62;1.90;0.80;;;21.90;29.20;;;;;;2256257;61;20377;-60
2023/11/20 03:48:06;0.00;0.00;0.62;0.00;0.00;0.62;1.80;0.90;;;21.90;29.20;;;;;;2254236;61;20765;-59
2023/11/20 03:50:50;0.00;0.00;0.62;0.00;0.00;0.62;1.70;0.80;;;21.90;29.20;;;;;;2256310;61;20440;-56
2023/11/20 03:53:36;0.00;0.00;0.62;0.00;0.00;0.62;2.50;1.10;;;21.90;29.20;;;;;;2255900;61;20892;-58
2023/11/20 03:56:21;0.00;0.00;0.62;0.00;0.00;0.62;1.77;0.93;;;22.00;29.30;;;;;;2255996;61;20401;-58
2023/11/20 03:59:05;0.00;0.00;0.62;0.00;0.00;0.62;1.70;1.00;;;21.90;29.20;;;;;;2256436;61;20369;-54
2023/11/20 04:01:50;0.00;0.00;0.62;0.00;0.00;0.62;1.40;0.77;;;21.90;29.20;;;;;;2255894;61;20409;-58
2023/11/20 04:04:34;0.00;0.00;0.62;0.00;0.00;0.62;1.50;0.80;;;22.00;29.30;;;;;;2256037;61;20370;-57
2023/11/20 04:07:19;0.00;0.00;0.62;0.00;0.00;0.62;1.50;0.80;;;22.00;29.30;;;;;;2256207;61;20401;-56
2023/11/20 04:10:07;0.00;0.00;0.62;0.00;0.00;0.62;1.60;0.90;;;22.00;29.30;;;;;;2252903;61;20908;-57
2023/11/20 04:12:52;0.00;0.00;0.62;0.00;0.00;0.62;1.53;0.77;;;21.90;29.20;;;;;;2252554;61;20410;-60
2023/11/20 04:15:37;0.00;0.00;0.62;0.00;0.00;0.62;1.50;0.80;;;22.00;29.30;;;;;;2256284;61;20413;-56
2023/11/20 04:18:21;0.00;0.00;0.62;0.00;0.00;0.62;1.30;0.70;;;21.90;29.20;;;;;;2255947;61;20369;-59
2023/11/20 04:21:06;0.00;0.00;0.62;0.00;0.00;0.62;1.60;0.83;;;22.00;29.30;;;;;;2256690;61;20817;-60
2023/11/20 04:23:52;0.00;0.00;0.62;0.00;0.00;0.62;1.50;1.00;;;21.90;29.20;;;;;;2256702;61;20999;-54
2023/11/20 04:26:37;0.00;0.00;0.62;0.00;0.00;0.62;1.40;0.73;;;21.90;29.20;;;;;;2256928;61;20454;-61
2023/11/20 04:29:22;0.00;0.00;0.62;0.00;0.00;0.62;1.43;0.77;;;21.90;29.20;;;;;;2257181;61;20365;-57
2023/11/20 04:32:06;0.00;0.00;0.62;0.00;0.00;0.62;1.70;0.80;;;22.00;29.30;;;;;;2256286;61;20857;-58
2023/11/20 04:34:51;0.00;0.00;0.62;0.00;0.00;0.62;1.67;0.90;;;21.90;29.20;;;;;;2256762;61;20888;-55
2023/11/20 04:37:36;0.00;0.00;0.62;0.00;0.00;0.62;1.43;0.77;;;22.00;29.30;;;;;;2256858;61;20982;-57
2023/11/20 04:40:20;0.00;0.00;0.62;0.00;0.00;0.62;1.60;0.90;;;22.00;29.30;;;;;;2256685;61;20821;-58
2023/11/20 04:43:06;0.00;0.00;0.62;0.00;0.00;0.62;1.70;1.00;;;22.00;29.30;;;;;;2256684;61;20380;-58
2023/11/20 04:45:51;0.00;0.00;0.62;0.00;0.00;0.62;1.70;0.80;;;22.00;29.30;;;;;;2256965;61;20602;-58
2023/11/20 04:48:36;0.00;0.00;0.62;0.00;0.00;0.62;1.60;0.90;;;22.00;29.40;;;;;;2253314;61;20373;-58
2023/11/20 04:51:20;0.00;0.00;0.62;0.00;0.00;0.62;1.40;0.70;;;22.00;29.30;;;;;;2256794;61;20389;-61
2023/11/20 04:54:05;0.00;0.00;0.62;0.00;0.00;0.62;1.80;1.00;;;21.90;29.30;;;;;;2253782;61;20480;-58
2023/11/20 04:56:50;0.00;0.00;0.62;0.00;0.00;0.62;1.53;0.80;;;21.90;29.30;;;;;;2256574;61;21062;-55
2023/11/20 04:59:36;0.00;0.00;0.62;0.00;0.00;0.62;1.57;0.83;;;21.90;29.30;;;;;;2257071;61;20377;-58
2023/11/20 05:02:21;0.00;0.00;0.62;0.00;0.00;0.62;1.40;0.80;;;21.90;29.30;;;;;;2256229;61;20369;-58
2023/11/20 05:05:06;0.00;0.00;0.62;0.00;0.00;0.62;1.43;0.87;;;22.00;29.40;;;;;;2256962;61;20927;-57
2023/11/20 05:07:52;0.00;0.00;0.62;0.00;0.00;0.62;1.30;0.70;;;21.90;29.30;;;;;;2256902;61;20501;-60
2023/11/20 05:10:36;0.00;0.00;0.62;0.00;0.00;0.62;1.57;0.90;;;21.90;29.30;;;;;;2256406;61;20386;-61
2023/11/20 05:13:21;0.00;0.00;0.62;0.00;0.00;0.62;1.40;0.77;;;22.00;29.40;;;;;;2256686;61;20368;-56
2023/11/20 05:16:07;0.00;0.00;0.62;0.00;0.00;0.62;1.40;0.80;;;21.90;29.30;;;;;;2256849;61;20405;-58
2023/11/20 05:18:52;0.00;0.00;0.62;0.00;0.00;0.62;1.57;0.87;;;21.90;29.80;;;;;;2256381;61;20366;-57
2023/11/20 05:21:37;0.00;0.00;0.62;0.00;0.00;0.62;1.40;0.70;;;21.90;29.30;;;;;;2256535;61;20393;-62
2023/11/20 05:24:21;0.00;0.00;0.62;0.00;0.00;0.62;1.60;1.00;;;21.90;29.30;;;;;;2256756;61;20440;-60
2023/11/20 05:27:06;0.00;0.00;0.62;0.00;0.00;0.62;1.70;0.90;;;21.90;29.30;;;;;;2256851;61;20385;-56
2023/11/20 05:29:50;0.00;0.00;0.62;0.00;0.00;0.62;1.67;0.80;;;21.90;29.30;;;;;;2256775;61;20381;-55
2023/11/20 05:32:36;0.00;0.00;0.62;0.00;0.00;0.62;1.47;0.83;;;22.00;29.40;;;;;;2256231;61;20362;-56
2023/11/20 05:35:21;0.00;0.00;0.62;0.00;0.00;0.62;1.40;0.80;;;21.90;29.30;;;;;;2256823;61;20384;-56
2023/11/20 05:38:06;0.00;0.00;0.62;0.00;0.00;0.62;1.40;0.67;;;22.00;29.40;;;;;;2256763;61;20389;-56
2023/11/20 05:40:50;0.00;0.00;0.62;0.00;0.00;0.62;1.60;0.90;;;21.90;29.40;;;;;;2256572;61;20394;-55
2023/11/20 05:43:36;0.00;0.00;0.62;0.00;0.00;0.62;1.50;0.70;;;22.00;29.40;;;;;;2256492;61;20385;-57
2023/11/20 05:46:21;0.00;0.00;0.62;0.00;0.00;0.62;1.50;0.80;;;21.90;29.30;;;;;;2256685;61;20404;-57
2023/11/20 05:49:07;0.00;0.00;0.62;0.00;0.00;0.62;2.27;0.90;;;22.00;29.40;;;;;;2256754;61;20358;-57
2023/11/20 05:51:52;0.00;0.00;0.62;0.00;0.00;0.62;1.20;0.70;;;21.90;29.40;;;;;;2256309;61;20389;-58
2023/11/20 05:54:37;0.00;0.00;0.62;0.00;0.00;0.62;2.57;1.10;;;22.00;29.40;;;;;;2256407;61;20381;-58
2023/11/20 05:57:22;0.00;0.00;0.62;0.00;0.00;0.62;1.30;0.70;;;21.90;29.40;;;;;;2256602;61;20479;-54
2023/11/20 06:00:10;0.00;0.00;0.62;0.00;0.00;0.62;1.30;0.60;;;22.00;29.40;;;;;;2256655;61;20405;-58
2023/11/20 06:02:59;0.00;0.00;0.62;0.00;0.00;0.62;1.40;0.90;;;22.00;29.40;;;;;;2256316;61;20417;-57
2023/11/20 06:05:45;0.00;0.00;0.62;0.00;0.00;0.62;1.60;0.90;;;21.90;29.40;;;;;;2256790;61;20412;-57
2023/11/20 06:08:30;0.00;0.00;0.62;0.00;0.00;0.62;1.40;0.70;;;22.00;29.40;;;;;;2256816;61;20984;-58
2023/11/20 06:11:21;0.00;0.00;0.62;0.00;0.00;0.62;1.40;0.80;;;22.00;30.00;;;;;;2265662;56;20472;-59
2023/11/20 06:14:06;0.00;0.00;0.62;0.00;0.00;0.62;1.80;0.90;;;21.90;29.40;;;;;;2254721;61;20373;-60
2023/11/20 06:16:50;0.00;0.00;0.62;0.00;0.00;0.62;1.70;0.80;;;21.90;29.40;;;;;;2260502;61;20971;-54
2023/11/20 06:19:35;0.00;0.00;0.62;0.00;0.00;0.62;1.50;0.70;;;22.00;29.50;;;;;;2260823;61;20473;-57
2023/11/20 06:22:21;0.00;0.00;0.62;0.00;0.00;0.62;1.30;0.67;;;21.90;29.40;;;;;;2260484;61;20911;-60
2023/11/20 06:25:06;0.00;0.00;0.62;0.00;0.00;0.62;1.40;0.80;;;21.90;29.40;;;;;;2260188;61;20384;-57
2023/11/20 06:27:51;0.00;0.00;0.62;0.00;0.00;0.62;1.70;0.90;;;21.90;29.40;;;;;;2257502;61;20412;-56
2023/11/20 06:30:35;0.00;0.00;0.62;0.00;0.00;0.62;1.40;0.80;;;21.90;29.40;;;;;;2260627;61;20922;-58
2023/11/20 06:33:21;0.00;0.00;0.62;0.00;0.00;0.62;1.30;0.70;;;21.90;29.40;;;;;;2260248;61;20389;-57
2023/11/20 06:36:07;0.00;0.00;0.62;0.00;0.00;0.62;1.67;0.90;;;22.00;30.00;;;;;;2260474;61;20441;-57
2023/11/20 06:38:53;0.00;0.00;0.62;0.00;0.00;0.62;1.30;0.70;;;21.90;29.40;;;;;;2260270;61;20392;-59
2023/11/20 06:41:39;0.00;0.00;0.62;0.00;0.00;0.62;1.50;0.87;;;22.00;29.50;;;;;;2260245;61;20962;-60
2023/11/20 06:44:23;0.00;0.00;0.62;0.00;0.00;0.62;1.77;1.10;;;22.00;29.50;;;;;;2260356;61;20365;-58
2023/11/20 06:47:08;0.00;0.00;0.62;0.00;0.00;0.62;1.30;0.67;;;21.90;29.40;;;;;;2260082;61;20357;-58
2023/11/20 06:49:52;0.00;0.00;0.62;0.00;0.00;0.62;1.80;0.90;;;21.90;29.40;;;;;;2260774;61;20973;-56
2023/11/20 06:52:38;0.00;0.00;0.62;0.00;0.00;0.62;1.70;0.73;;;21.90;29.50;;;;;;2260196;61;20427;-57
2023/11/20 06:55:24;0.00;0.00;0.62;0.00;0.00;0.62;1.50;0.70;;;22.00;29.50;;;;;;2260204;61;20883;-57
2023/11/20 06:58:09;0.00;0.00;0.62;0.00;0.00;0.62;1.33;0.80;;;21.90;29.40;;;;;;2260360;61;20392;-59
2023/11/20 07:00:54;0.00;0.00;0.62;0.00;0.00;0.62;1.70;0.90;;;21.90;29.40;;;;;;2260407;61;20469;-57
2023/11/20 07:03:42;0.00;0.00;0.62;0.00;0.00;0.62;1.63;0.93;;;22.00;29.50;;;;;;2260343;61;20511;-56
2023/11/20 07:06:27;0.00;0.00;0.62;0.00;0.00;0.62;1.60;0.90;;;21.90;29.40;;;;;;2260484;61;20746;-56
2023/11/20 07:09:15;0.00;0.00;0.62;0.00;0.00;0.62;1.53;0.90;;;22.00;29.50;;;;;;2260010;61;20372;-60
2023/11/20 07:12:01;0.00;0.00;0.62;0.00;0.00;0.62;2.13;1.30;;;22.00;29.50;;;;;;2260194;61;20411;-57
2023/11/20 07:14:45;0.00;0.00;0.62;0.00;0.00;0.62;1.60;0.90;;;21.90;29.50;;;;;;2260448;61;20366;-57
2023/11/20 07:17:30;0.00;0.00;0.62;0.00;0.00;0.62;1.90;1.10;;;21.90;29.50;;;;;;2260195;61;20700;-59
2023/11/20 07:20:15;0.00;0.00;0.62;0.00;0.00;0.62;1.80;1.20;;;22.00;29.50;;;;;;2260479;61;20381;-59
2023/11/20 07:23:01;0.00;0.00;0.62;0.00;0.00;0.62;1.97;1.20;;;21.90;29.50;;;;;;2259675;61;20396;-58
2023/11/20 07:25:46;0.00;0.00;0.62;0.00;0.00;0.62;1.70;1.10;;;21.90;29.50;;;;;;2257248;61;20380;-58
2023/11/20 07:28:33;0.00;0.00;0.62;0.00;0.00;0.62;2.27;1.47;;;21.90;29.50;;;;;;2260517;61;20911;-56
2023/11/20 07:31:25;0.00;0.00;0.62;0.00;0.00;0.62;3.10;1.77;;;21.90;29.50;;;;;;2260012;61;20385;-58
2023/11/20 07:34:10;0.00;0.00;0.62;0.00;0.00;0.62;2.77;1.87;;;21.90;29.70;;;;;;2260738;61;20822;-59
2023/11/20 07:36:55;0.00;0.00;0.62;0.00;0.00;0.62;3.30;1.93;;;22.00;29.60;;;;;;2260220;61;20800;-59
2023/11/20 07:39:41;0.00;0.00;0.62;0.00;0.00;0.62;2.60;1.70;;;21.90;29.50;;;;;;2260044;61;20866;-59
2023/11/20 07:42:26;0.00;0.00;0.62;0.00;0.00;0.62;2.90;1.63;;;21.90;29.50;;;;;;2259999;61;20361;-60
2023/11/20 07:45:13;0.00;0.00;0.62;0.00;0.00;0.62;2.53;1.60;;;22.00;29.60;;;;;;2257052;61;20388;-54
2023/11/20 07:47:58;0.00;0.00;0.62;0.00;0.00;0.62;2.60;1.60;;;21.90;29.50;;;;;;2260437;61;20361;-58
2023/11/20 07:50:42;0.00;0.00;0.62;0.00;0.00;0.62;2.20;1.63;;;21.90;29.50;;;;;;2259995;61;20408;-59
2023/11/20 07:53:27;0.00;0.00;0.62;0.00;0.00;0.62;2.33;1.47;;;21.90;29.50;;;;;;2259688;61;20369;-59
2023/11/20 07:56:13;0.00;0.00;0.62;0.00;0.00;0.62;2.87;1.33;;;22.00;29.60;;;;;;2260383;61;20364;-57
2023/11/20 07:58:57;0.00;0.00;0.62;0.00;0.00;0.62;2.53;1.77;;;22.00;29.60;;;;;;2259987;61;20429;-56
2023/11/20 08:01:43;0.00;0.00;0.62;0.00;0.00;0.62;2.80;1.77;;;21.90;29.50;;;;;;2259699;61;20922;-60
2023/11/20 08:04:28;0.00;0.00;0.62;0.00;0.00;0.62;2.57;1.70;;;21.90;29.50;;;;;;2260370;61;20369;-59
2023/11/20 08:07:16;0.00;0.00;0.62;0.00;0.00;0.62;2.23;1.30;;;21.90;30.00;;;;;;2260132;61;20404;-60
2023/11/20 08:10:02;0.00;0.00;0.62;0.00;0.00;0.62;2.27;1.43;;;21.90;29.50;;;;;;2256940;61;20380;-56
2023/11/20 08:12:46;0.00;0.00;0.62;0.00;0.00;0.62;2.53;1.30;;;22.00;29.60;;;;;;2259908;61;20361;-59
2023/11/20 08:15:31;0.00;0.00;0.62;0.00;0.00;0.62;2.53;1.70;;;22.00;29.60;;;;;;2259998;61;20416;-56
2023/11/20 08:18:16;0.00;0.00;0.62;0.00;0.00;0.62;2.40;1.57;;;22.00;29.60;;;;;;2260213;61;20959;-56
2023/11/20 08:21:01;0.00;0.00;0.62;0.00;0.00;0.62;2.47;1.60;;;22.00;29.60;;;;;;2260445;61;20401;-56
2023/11/20 08:23:46;0.00;0.00;0.62;0.00;0.00;0.62;2.10;1.57;;;21.90;29.50;;;;;;2259693;61;20368;-59
2023/11/20 08:26:31;0.00;0.00;0.62;0.00;0.00;0.62;2.93;1.90;;;21.90;29.50;;;;;;2260063;61;20424;-57
2023/11/20 08:29:19;0.00;0.00;0.62;0.00;0.00;0.62;2.87;1.60;;;21.90;29.50;;;;;;2260401;61;20408;-61
2023/11/20 08:32:04;0.00;0.00;0.62;0.00;0.00;0.62;1.90;1.50;;;21.90;29.60;;;;;;2259898;61;20364;-59
2023/11/20 08:34:50;0.00;0.00;0.62;0.00;0.00;0.62;2.30;1.47;;;21.90;29.50;;;;;;2260187;61;20771;-58
2023/11/20 08:37:34;0.00;0.00;0.62;0.00;0.00;0.62;2.40;1.50;;;21.90;29.50;;;;;;2259748;61;21049;-57
2023/11/20 08:40:20;0.00;0.00;0.62;0.00;0.00;0.62;2.73;2.07;;;21.90;29.50;;;;;;2260346;61;20427;-55
2023/11/20 08:43:05;0.00;0.00;0.62;0.00;0.00;0.62;2.53;1.40;;;21.90;29.50;;;;;;2259605;61;20884;-60
2023/11/20 08:45:50;0.00;0.00;0.62;0.00;0.00;0.62;2.43;1.80;;;21.90;29.50;;;;;;2259989;61;20898;-58
2023/11/20 08:48:35;0.00;0.00;0.62;0.00;0.00;0.62;3.30;2.20;;;21.90;29.60;;;;;;2260238;61;20356;-61
2023/11/20 08:51:21;0.00;0.00;0.62;0.00;0.00;0.62;2.93;2.20;;;21.90;29.50;;;;;;2260151;61;20539;-56
2023/11/20 08:54:06;0.00;0.00;0.62;0.00;0.00;0.62;3.10;2.67;;;21.90;29.60;;;;;;2260262;61;20822;-61
2023/11/20 08:56:51;0.00;0.00;0.62;0.00;0.00;0.62;3.17;2.17;;;22.00;29.60;;;;;;2260176;61;20384;-59
2023/11/20 08:59:36;0.00;0.00;0.62;0.00;0.00;0.62;3.63;2.03;;;21.90;29.60;;;;;;2256943;61;20883;-59
2023/11/20 09:02:20;0.00;0.00;0.62;0.00;0.00;0.62;3.20;2.00;;;21.90;29.60;;;;;;2259894;61;20361;-58
2023/11/20 09:05:06;0.00;0.00;0.62;0.00;0.00;0.62;3.77;2.33;;;22.00;29.70;;;;;;2260309;61;20435;-58
2023/11/20 09:07:52;0.00;0.00;0.62;0.00;0.00;0.62;4.23;2.53;;;22.00;29.70;;;;;;2260602;61;20884;-57
2023/11/20 09:10:37;0.00;0.00;0.62;0.00;0.00;0.62;2.83;2.10;;;22.00;29.70;;;;;;2260845;61;20431;-59
2023/11/20 09:13:21;0.00;0.00;0.62;0.00;0.00;0.62;3.13;2.17;;;21.90;29.60;;;;;;2260535;61;20415;-58
2023/11/20 09:16:07;0.00;0.00;0.62;0.00;0.00;0.62;3.23;2.20;;;22.00;29.70;;;;;;2260575;61;20404;-59
2023/11/20 09:18:52;0.00;0.00;0.62;0.00;0.00;0.62;3.77;2.70;;;21.90;29.60;;;;;;2260857;61;20377;-59
2023/11/20 09:21:37;0.00;0.00;0.62;0.00;0.00;0.62;5.50;3.43;;;22.00;29.70;;;;;;2260196;61;20421;-60
2023/11/20 09:24:23;0.00;0.00;0.62;0.00;0.00;0.62;3.10;2.23;;;22.00;29.70;;;;;;2261177;61;20369;-59
2023/11/20 09:27:10;0.00;0.00;0.62;0.00;0.00;0.62;3.17;2.37;;;22.00;29.70;;;;;;2260721;61;20364;-60
2023/11/20 09:29:56;0.00;0.00;0.62;0.00;0.00;0.62;3.23;2.10;;;21.90;29.60;;;;;;2260530;61;20404;-60
2023/11/20 09:32:41;0.00;0.00;0.62;0.00;0.00;0.62;2.73;2.33;;;21.90;29.60;;;;;;2260368;61;20368;-57
2023/11/20 09:35:26;0.00;0.00;0.62;0.00;0.00;0.62;4.13;2.80;;;21.90;29.60;;;;;;2260685;61;20449;-61
2023/11/20 09:38:11;0.00;0.00;0.62;0.00;0.00;0.62;4.13;2.50;;;22.00;29.70;;;;;;2260462;61;21022;-58
2023/11/20 09:40:58;0.00;0.00;0.62;0.00;0.00;0.62;3.30;2.33;;;21.90;29.70;;;;;;2279452;56;21052;-56
2023/11/20 09:43:44;0.00;0.00;0.62;0.00;0.00;0.62;3.40;2.53;;;22.00;29.70;;;;;;2251938;61;20466;-59
2023/11/20 09:46:34;0.00;0.00;0.62;0.00;0.00;0.62;4.63;2.93;;;22.00;29.70;;;;;;2252805;61;20447;-60
2023/11/20 09:49:22;0.00;0.00;0.62;0.00;0.00;0.62;3.00;2.17;;;21.90;29.70;;;;;;2252623;61;20413;-59
2023/11/20 09:52:08;0.00;0.00;0.62;0.00;0.00;0.62;3.00;2.50;;;21.90;30.10;;;;;;2247933;61;20367;-61
2023/11/20 09:54:57;0.00;0.00;0.62;0.00;0.00;0.62;3.23;2.40;;;22.00;29.70;;;;;;2249148;61;20407;-58
2023/11/20 09:57:43;0.00;0.00;0.62;0.00;0.00;0.62;4.00;2.27;;;21.90;29.70;;;;;;2248781;61;20426;-59
2023/11/20 10:00:27;0.00;0.00;0.62;0.00;0.00;0.62;4.37;2.70;;;21.90;29.70;;;;;;2248415;61;20822;-61
2023/11/20 10:03:12;0.00;0.00;0.62;0.00;0.00;0.62;4.20;2.70;;;21.90;29.70;;;;;;2245262;61;20363;-61
2023/11/20 10:05:59;0.00;0.00;0.62;0.00;0.00;0.62;4.00;2.77;;;22.00;29.70;;;;;;2248388;61;20927;-56
2023/11/20 10:08:45;0.00;0.00;0.62;0.00;0.00;0.62;3.47;2.10;;;21.90;29.70;;;;;;2248921;61;20391;-61
2023/11/20 10:11:34;0.00;0.00;0.62;0.00;0.00;0.62;3.43;2.17;;;22.00;30.20;;;;;;2248631;61;20407;-58
2023/11/20 10:14:20;0.00;0.00;0.62;0.00;0.00;0.62;2.97;2.03;;;22.00;29.70;;;;;;2245247;61;20452;-65
2023/11/20 10:17:07;0.00;0.00;0.62;0.00;0.00;0.62;4.77;2.33;;;22.00;29.80;;;;;;2248698;61;20462;-59
2023/11/20 10:19:51;0.00;0.00;0.62;0.00;0.00;0.62;2.93;2.30;;;22.00;29.80;;;;;;2245360;61;20390;-61
2023/11/20 10:22:36;0.00;0.00;0.62;0.00;0.00;0.62;4.17;2.80;;;22.00;29.80;;;;;;2244851;61;20779;-58
2023/11/20 10:25:21;0.00;0.00;0.62;0.00;0.00;0.62;3.60;2.60;;;22.00;29.80;;;;;;2248804;61;20371;-56
2023/11/20 10:28:06;0.00;0.00;0.62;0.00;0.00;0.62;4.10;2.57;;;22.00;29.80;;;;;;2248494;61;20927;-56
2023/11/20 10:30:54;0.00;0.00;0.62;0.00;0.00;0.62;3.47;2.03;;;22.00;29.80;;;;;;2248462;61;20384;-59
2023/11/20 10:33:38;0.00;0.00;0.62;0.00;0.00;0.62;3.67;2.53;;;22.00;29.80;;;;;;2248097;61;20408;-57
2023/11/20 10:36:23;0.00;0.00;0.62;0.00;0.00;0.62;6.07;2.90;;;22.00;29.80;;;;;;2248207;61;20383;-57
2023/11/20 10:39:12;0.00;0.00;0.62;0.00;0.00;0.62;3.43;2.60;;;22.00;29.80;;;;;;2248649;61;20791;-60
2023/11/20 10:41:57;0.00;0.00;0.62;0.00;0.00;0.62;4.00;2.87;;;22.00;29.80;;;;;;2248090;61;20371;-54
2023/11/20 10:44:42;0.00;0.00;0.62;0.00;0.00;0.62;2.80;1.90;;;22.00;29.80;;;;;;2248179;61;21094;-57
2023/11/20 10:47:28;0.00;0.00;0.62;0.00;0.00;0.62;4.07;2.00;;;22.00;29.80;;;;;;2248621;61;20418;-61
2023/11/20 10:50:14;0.00;0.00;0.62;0.00;0.00;0.62;3.60;2.00;;;22.00;29.80;;;;;;2248132;61;20858;-62
2023/11/20 10:53:08;0.00;0.00;0.62;0.00;0.00;0.62;2.80;2.33;;;22.00;29.80;;;;;;2248215;61;20803;-57